createdAt,value
2022-10-29T00:00:02.439Z,1017.2
2022-10-29T00:15:02.868Z,1016.9
2022-10-29T00:30:02.309Z,1016.9
2022-10-29T00:45:02.808Z,1016.8
2022-10-29T01:00:03.187Z,1016.9
2022-10-29T01:15:02.822Z,1016.9
2022-10-29T01:30:02.045Z,1016.9
2022-10-29T01:45:02.496Z,1016.6
2022-10-29T02:00:02.913Z,1016.6
2022-10-29T02:15:02.343Z,1016.5
2022-10-29T02:30:02.856Z,1016.4
2022-10-29T02:45:02.236Z,1016.2
2022-10-29T03:00:02.870Z,1016.2
2022-10-29T03:15:02.124Z,1016.1
2022-10-29T03:30:02.576Z,1016.1
2022-10-29T03:45:03.003Z,1015.8
2022-10-29T04:00:02.434Z,1016.0
2022-10-29T04:15:02.887Z,1015.8
2022-10-29T04:30:02.430Z,1015.8
2022-10-29T04:45:02.866Z,1015.9
2022-10-29T05:00:02.297Z,1016.0
2022-10-29T05:15:02.820Z,1016.2
2022-10-29T05:30:02.068Z,1016.1
2022-10-29T05:45:02.488Z,1016.0
2022-10-29T06:00:02.938Z,1015.8
2022-10-29T06:15:02.372Z,1015.7
2022-10-29T06:30:02.907Z,1015.7
2022-10-29T06:45:02.235Z,1015.9
2022-10-29T07:00:07.342Z,1016.1
2022-10-29T07:15:03.118Z,1015.9
2022-10-29T07:30:02.550Z,1015.9
2022-10-29T07:45:03.037Z,1016.0
2022-10-29T08:00:02.467Z,1015.9
2022-10-29T08:15:02.909Z,1015.8
2022-10-29T08:30:02.334Z,1015.8
2022-10-29T08:45:02.907Z,1015.9
2022-10-29T09:00:02.249Z,1016.0
2022-10-29T09:15:02.655Z,1015.8
2022-10-29T09:30:03.097Z,1015.6
2022-10-29T09:45:02.521Z,1015.6
2022-10-29T10:00:02.955Z,1015.6
2022-10-29T10:15:02.367Z,1015.1
2022-10-29T10:30:02.942Z,1015.3
2022-10-29T10:45:02.246Z,1015.1
2022-10-29T11:00:02.901Z,1014.8
2022-10-29T11:15:02.187Z,1014.7
2022-10-29T11:30:02.556Z,1014.6
2022-10-29T11:45:03.028Z,1014.5
2022-10-29T12:00:02.466Z,1014.1
2022-10-29T12:15:02.976Z,1014.2
2022-10-29T12:30:02.324Z,1014.1
2022-10-29T12:45:02.974Z,1014.0
2022-10-29T13:00:02.202Z,1014.0
2022-10-29T13:15:02.622Z,1013.7
2022-10-29T13:30:03.074Z,1013.5
2022-10-29T13:45:02.488Z,1013.4
2022-10-29T14:00:03.004Z,1013.3
2022-10-29T14:15:02.386Z,1013.4
2022-10-29T14:30:03.005Z,1013.2
2022-10-29T14:45:02.272Z,1013.2
2022-10-29T15:00:02.727Z,1013.3
2022-10-29T15:15:03.153Z,1013.2
2022-10-29T15:30:02.595Z,1013.1
2022-10-29T15:45:03.042Z,1012.9
2022-10-29T16:15:03.008Z,1012.9
2022-10-29T16:30:02.314Z,1012.8
2022-10-29T16:45:02.764Z,1012.9
2022-10-29T17:00:03.187Z,1012.8
2022-10-29T17:15:02.611Z,1012.8
2022-10-29T17:30:03.065Z,1012.9
2022-10-29T17:45:02.492Z,1012.9
2022-10-29T18:00:03.039Z,1013.0
2022-10-29T18:15:02.384Z,1012.8
2022-10-29T18:30:03.039Z,1012.8
2022-10-29T18:45:02.256Z,1012.8
2022-10-29T19:00:02.670Z,1012.5
2022-10-29T19:15:03.116Z,1012.8
2022-10-29T19:30:02.545Z,1012.7
2022-10-29T19:45:03.047Z,1012.4
2022-10-29T20:00:02.407Z,1012.3
2022-10-29T20:15:03.054Z,1012.3
2022-10-29T20:30:02.272Z,1012.2
2022-10-29T20:45:02.720Z,1012.0
2022-10-29T21:00:03.154Z,1011.9
2022-10-29T21:15:02.586Z,1012.1
2022-10-29T21:30:03.088Z,1012.1
2022-10-29T21:45:02.460Z,1012.2
2022-10-29T22:00:03.084Z,1012.2
2022-10-29T22:15:03.348Z,1012.4
2022-10-29T22:30:02.783Z,1012.1
2022-10-29T22:45:03.218Z,1012.3
2022-10-29T23:00:02.654Z,1012.3
2022-10-29T23:15:03.105Z,1012.3
2022-10-29T23:30:02.606Z,1012.3
2022-10-29T23:45:06.895Z,1012.3
